sensor_id;sensor_type;location;lat;lon;timestamp;P1;durP1;ratioP1;P2;durP2;ratioP2
4794;SDS011;2411;47.060;15.064;2024-01-30T00:00:51;3.20;;;2.90;;
4794;SDS011;2411;47.060;15.064;2024-01-30T00:03:18;2.40;;;2.20;;
4794;SDS011;2411;47.060;15.064;2024-01-30T00:05:45;5.23;;;3.20;;
4794;SDS011;2411;47.060;15.064;2024-01-30T00:08:12;4.20;;;2.30;;
4794;SDS011;2411;47.060;15.064;2024-01-30T00:10:39;4.30;;;2.60;;
4794;SDS011;2411;47.060;15.064;2024-01-30T00:13:06;2.40;;;2.13;;
4794;SDS011;2411;47.060;15.064;2024-01-30T00:15:34;3.23;;;2.93;;
4794;SDS011;2411;47.060;15.064;2024-01-30T00:18:01;2.70;;;2.20;;
4794;SDS011;2411;47.060;15.064;2024-01-30T00:20:28;3.93;;;2.00;;
4794;SDS011;2411;47.060;15.064;2024-01-30T00:22:55;2.87;;;2.00;;
4794;SDS011;2411;47.060;15.064;2024-01-30T00:25:22;2.63;;;2.40;;
4794;SDS011;2411;47.060;15.064;2024-01-30T00:27:49;2.27;;;2.07;;
4794;SDS011;2411;47.060;15.064;2024-01-30T00:30:16;3.77;;;1.43;;
4794;SDS011;2411;47.060;15.064;2024-01-30T00:32:44;3.20;;;2.17;;
4794;SDS011;2411;47.060;15.064;2024-01-30T00:35:11;5.23;;;2.37;;
4794;SDS011;2411;47.060;15.064;2024-01-30T00:37:38;3.57;;;1.90;;
4794;SDS011;2411;47.060;15.064;2024-01-30T00:40:05;4.57;;;1.57;;
4794;SDS011;2411;47.060;15.064;2024-01-30T00:42:33;2.17;;;2.00;;
4794;SDS011;2411;47.060;15.064;2024-01-30T00:45:00;2.17;;;2.00;;
4794;SDS011;2411;47.060;15.064;2024-01-30T00:47:27;4.00;;;1.70;;
4794;SDS011;2411;47.060;15.064;2024-01-30T00:49:55;1.50;;;1.50;;
4794;SDS011;2411;47.060;15.064;2024-01-30T00:52:22;3.73;;;2.07;;
4794;SDS011;2411;47.060;15.064;2024-01-30T00:54:49;2.17;;;2.03;;
4794;SDS011;2411;47.060;15.064;2024-01-30T00:57:16;3.37;;;2.33;;
4794;SDS011;2411;47.060;15.064;2024-01-30T00:59:43;2.27;;;2.07;;
4794;SDS011;2411;47.060;15.064;2024-01-30T01:02:11;3.07;;;2.10;;
4794;SDS011;2411;47.060;15.064;2024-01-30T01:04:38;2.30;;;2.10;;
4794;SDS011;2411;47.060;15.064;2024-01-30T01:07:05;3.30;;;2.07;;
4794;SDS011;2411;47.060;15.064;2024-01-30T01:09:32;3.20;;;2.50;;
4794;SDS011;2411;47.060;15.064;2024-01-30T01:11:59;2.13;;;2.03;;
4794;SDS011;2411;47.060;15.064;2024-01-30T01:14:28;2.07;;;1.97;;
4794;SDS011;2411;47.060;15.064;2024-01-30T01:16:55;2.03;;;1.93;;
4794;SDS011;2411;47.060;15.064;2024-01-30T01:19:22;2.13;;;1.93;;
4794;SDS011;2411;47.060;15.064;2024-01-30T01:21:49;2.00;;;1.60;;
4794;SDS011;2411;47.060;15.064;2024-01-30T01:24:16;1.53;;;1.50;;
4794;SDS011;2411;47.060;15.064;2024-01-30T01:26:43;2.00;;;1.90;;
4794;SDS011;2411;47.060;15.064;2024-01-30T01:29:10;1.70;;;1.30;;
4794;SDS011;2411;47.060;15.064;2024-01-30T01:31:38;2.50;;;1.47;;
4794;SDS011;2411;47.060;15.064;2024-01-30T01:34:10;1.13;;;1.10;;
4794;SDS011;2411;47.060;15.064;2024-01-30T01:36:38;1.50;;;1.40;;
4794;SDS011;2411;47.060;15.064;2024-01-30T01:39:06;1.53;;;1.43;;
4794;SDS011;2411;47.060;15.064;2024-01-30T01:41:33;2.00;;;1.50;;
4794;SDS011;2411;47.060;15.064;2024-01-30T01:44:00;2.23;;;2.03;;
4794;SDS011;2411;47.060;15.064;2024-01-30T01:46:27;1.70;;;1.63;;
4794;SDS011;2411;47.060;15.064;2024-01-30T01:48:59;2.33;;;1.97;;
4794;SDS011;2411;47.060;15.064;2024-01-30T01:51:29;2.00;;;1.77;;
4794;SDS011;2411;47.060;15.064;2024-01-30T01:53:58;1.53;;;1.43;;
4794;SDS011;2411;47.060;15.064;2024-01-30T01:56:28;2.57;;;1.77;;
4794;SDS011;2411;47.060;15.064;2024-01-30T01:58:58;2.47;;;1.70;;
4794;SDS011;2411;47.060;15.064;2024-01-30T02:01:31;2.20;;;2.00;;
4794;SDS011;2411;47.060;15.064;2024-01-30T02:03:59;2.27;;;2.07;;
4794;SDS011;2411;47.060;15.064;2024-01-30T02:06:27;2.93;;;2.30;;
4794;SDS011;2411;47.060;15.064;2024-01-30T02:08:55;3.63;;;2.27;;
4794;SDS011;2411;47.060;15.064;2024-01-30T02:11:22;2.23;;;2.13;;
4794;SDS011;2411;47.060;15.064;2024-01-30T02:13:50;1.90;;;1.30;;
4794;SDS011;2411;47.060;15.064;2024-01-30T02:16:17;2.10;;;1.90;;
4794;SDS011;2411;47.060;15.064;2024-01-30T02:18:44;2.33;;;1.43;;
4794;SDS011;2411;47.060;15.064;2024-01-30T02:21:18;3.13;;;2.10;;
4794;SDS011;2411;47.060;15.064;2024-01-30T02:23:48;2.00;;;1.90;;
4794;SDS011;2411;47.060;15.064;2024-01-30T02:26:17;1.70;;;1.60;;
4794;SDS011;2411;47.060;15.064;2024-01-30T02:28:44;2.40;;;1.70;;
4794;SDS011;2411;47.060;15.064;2024-01-30T02:31:11;2.83;;;1.80;;
4794;SDS011;2411;47.060;15.064;2024-01-30T02:33:38;2.60;;;1.97;;
4794;SDS011;2411;47.060;15.064;2024-01-30T02:36:05;2.33;;;2.10;;
4794;SDS011;2411;47.060;15.064;2024-01-30T02:38:32;1.87;;;1.77;;
4794;SDS011;2411;47.060;15.064;2024-01-30T02:40:59;1.90;;;1.80;;
4794;SDS011;2411;47.060;15.064;2024-01-30T02:43:26;2.20;;;2.00;;
4794;SDS011;2411;47.060;15.064;2024-01-30T02:45:53;2.30;;;2.10;;
4794;SDS011;2411;47.060;15.064;2024-01-30T02:48:21;3.40;;;2.27;;
4794;SDS011;2411;47.060;15.064;2024-01-30T02:50:48;1.30;;;1.20;;
4794;SDS011;2411;47.060;15.064;2024-01-30T02:53:15;4.60;;;2.00;;
4794;SDS011;2411;47.060;15.064;2024-01-30T02:55:42;2.03;;;1.73;;
4794;SDS011;2411;47.060;15.064;2024-01-30T02:58:09;4.90;;;3.37;;
4794;SDS011;2411;47.060;15.064;2024-01-30T03:00:36;8.50;;;4.10;;
4794;SDS011;2411;47.060;15.064;2024-01-30T03:03:04;4.27;;;1.87;;
4794;SDS011;2411;47.060;15.064;2024-01-30T03:05:31;1.53;;;1.43;;
4794;SDS011;2411;47.060;15.064;2024-01-30T03:07:58;1.83;;;1.40;;
4794;SDS011;2411;47.060;15.064;2024-01-30T03:10:25;2.47;;;2.00;;
4794;SDS011;2411;47.060;15.064;2024-01-30T03:12:52;3.63;;;2.23;;
4794;SDS011;2411;47.060;15.064;2024-01-30T03:15:19;2.30;;;2.00;;
4794;SDS011;2411;47.060;15.064;2024-01-30T03:17:46;3.17;;;2.30;;
4794;SDS011;2411;47.060;15.064;2024-01-30T03:20:13;1.57;;;1.47;;
4794;SDS011;2411;47.060;15.064;2024-01-30T03:22:41;2.83;;;2.10;;
4794;SDS011;2411;47.060;15.064;2024-01-30T03:25:08;2.00;;;1.80;;
4794;SDS011;2411;47.060;15.064;2024-01-30T03:27:35;2.70;;;1.70;;
4794;SDS011;2411;47.060;15.064;2024-01-30T03:30:02;5.07;;;3.10;;
4794;SDS011;2411;47.060;15.064;2024-01-30T03:32:29;5.57;;;2.40;;
4794;SDS011;2411;47.060;15.064;2024-01-30T03:34:57;2.77;;;1.37;;
4794;SDS011;2411;47.060;15.064;2024-01-30T03:37:24;3.73;;;2.10;;
4794;SDS011;2411;47.060;15.064;2024-01-30T03:39:52;4.50;;;2.17;;
4794;SDS011;2411;47.060;15.064;2024-01-30T03:42:19;7.00;;;2.53;;
4794;SDS011;2411;47.060;15.064;2024-01-30T03:44:46;3.03;;;1.93;;
4794;SDS011;2411;47.060;15.064;2024-01-30T03:47:13;2.57;;;2.37;;
4794;SDS011;2411;47.060;15.064;2024-01-30T03:49:41;2.20;;;1.90;;
4794;SDS011;2411;47.060;15.064;2024-01-30T03:52:08;2.20;;;2.10;;
4794;SDS011;2411;47.060;15.064;2024-01-30T03:54:35;6.93;;;2.23;;
4794;SDS011;2411;47.060;15.064;2024-01-30T03:57:02;2.87;;;1.90;;
4794;SDS011;2411;47.060;15.064;2024-01-30T03:59:30;5.30;;;2.40;;
4794;SDS011;2411;47.060;15.064;2024-01-30T04:01:57;3.10;;;2.47;;
4794;SDS011;2411;47.060;15.064;2024-01-30T04:04:24;1.80;;;1.70;;
4794;SDS011;2411;47.060;15.064;2024-01-30T04:06:51;1.83;;;1.63;;
4794;SDS011;2411;47.060;15.064;2024-01-30T04:09:19;8.30;;;2.10;;
4794;SDS011;2411;47.060;15.064;2024-01-30T04:11:46;2.57;;;2.33;;
4794;SDS011;2411;47.060;15.064;2024-01-30T04:14:13;2.17;;;1.97;;
4794;SDS011;2411;47.060;15.064;2024-01-30T04:16:40;2.40;;;2.20;;
4794;SDS011;2411;47.060;15.064;2024-01-30T04:19:07;4.33;;;2.00;;
4794;SDS011;2411;47.060;15.064;2024-01-30T04:21:34;3.17;;;2.30;;
4794;SDS011;2411;47.060;15.064;2024-01-30T04:24:01;5.10;;;2.67;;
4794;SDS011;2411;47.060;15.064;2024-01-30T04:26:28;2.53;;;2.33;;
4794;SDS011;2411;47.060;15.064;2024-01-30T04:28:56;2.67;;;1.77;;
4794;SDS011;2411;47.060;15.064;2024-01-30T04:31:23;2.27;;;1.83;;
4794;SDS011;2411;47.060;15.064;2024-01-30T04:33:50;2.70;;;1.80;;
4794;SDS011;2411;47.060;15.064;2024-01-30T04:36:17;4.07;;;2.23;;
4794;SDS011;2411;47.060;15.064;2024-01-30T04:38:44;2.27;;;2.10;;
4794;SDS011;2411;47.060;15.064;2024-01-30T04:41:11;3.03;;;1.80;;
4794;SDS011;2411;47.060;15.064;2024-01-30T04:43:38;1.33;;;1.33;;
4794;SDS011;2411;47.060;15.064;2024-01-30T04:46:06;2.33;;;2.20;;
4794;SDS011;2411;47.060;15.064;2024-01-30T04:48:33;1.50;;;1.40;;
4794;SDS011;2411;47.060;15.064;2024-01-30T04:51:00;3.13;;;2.03;;
4794;SDS011;2411;47.060;15.064;2024-01-30T04:53:30;1.47;;;1.47;;
4794;SDS011;2411;47.060;15.064;2024-01-30T04:55:57;1.60;;;1.50;;
4794;SDS011;2411;47.060;15.064;2024-01-30T04:58:24;2.33;;;1.50;;
4794;SDS011;2411;47.060;15.064;2024-01-30T05:00:51;1.80;;;1.70;;
4794;SDS011;2411;47.060;15.064;2024-01-30T05:03:19;1.73;;;1.67;;
4794;SDS011;2411;47.060;15.064;2024-01-30T05:05:46;5.23;;;2.47;;
4794;SDS011;2411;47.060;15.064;2024-01-30T05:08:13;1.70;;;1.60;;
4794;SDS011;2411;47.060;15.064;2024-01-30T05:10:40;2.00;;;1.80;;
4794;SDS011;2411;47.060;15.064;2024-01-30T05:13:08;1.70;;;1.60;;
4794;SDS011;2411;47.060;15.064;2024-01-30T05:15:35;1.40;;;1.30;;
4794;SDS011;2411;47.060;15.064;2024-01-30T05:18:02;1.17;;;1.03;;
4794;SDS011;2411;47.060;15.064;2024-01-30T05:20:30;1.03;;;1.03;;
4794;SDS011;2411;47.060;15.064;2024-01-30T05:22:57;3.30;;;1.33;;
4794;SDS011;2411;47.060;15.064;2024-01-30T05:25:24;1.23;;;1.13;;
4794;SDS011;2411;47.060;15.064;2024-01-30T05:27:51;1.17;;;1.17;;
4794;SDS011;2411;47.060;15.064;2024-01-30T05:30:18;1.20;;;1.17;;
4794;SDS011;2411;47.060;15.064;2024-01-30T05:32:45;1.83;;;1.23;;
4794;SDS011;2411;47.060;15.064;2024-01-30T05:35:13;1.33;;;1.30;;
4794;SDS011;2411;47.060;15.064;2024-01-30T05:37:40;1.53;;;1.40;;
4794;SDS011;2411;47.060;15.064;2024-01-30T05:40:07;1.13;;;1.13;;
4794;SDS011;2411;47.060;15.064;2024-01-30T05:42:34;6.00;;;1.20;;
4794;SDS011;2411;47.060;15.064;2024-01-30T05:45:02;1.00;;;1.00;;
4794;SDS011;2411;47.060;15.064;2024-01-30T05:47:29;4.10;;;1.10;;
4794;SDS011;2411;47.060;15.064;2024-01-30T05:49:56;1.43;;;1.33;;
4794;SDS011;2411;47.060;15.064;2024-01-30T05:52:23;1.20;;;1.20;;
4794;SDS011;2411;47.060;15.064;2024-01-30T05:54:50;1.77;;;1.00;;
4794;SDS011;2411;47.060;15.064;2024-01-30T05:57:18;2.20;;;1.30;;
4794;SDS011;2411;47.060;15.064;2024-01-30T05:59:45;2.20;;;1.30;;
4794;SDS011;2411;47.060;15.064;2024-01-30T06:02:14;1.17;;;1.13;;
4794;SDS011;2411;47.060;15.064;2024-01-30T06:04:41;1.67;;;1.30;;
4794;SDS011;2411;47.060;15.064;2024-01-30T06:07:08;2.10;;;1.43;;
4794;SDS011;2411;47.060;15.064;2024-01-30T06:09:35;1.63;;;1.27;;
4794;SDS011;2411;47.060;15.064;2024-01-30T06:12:03;1.00;;;1.00;;
4794;SDS011;2411;47.060;15.064;2024-01-30T06:14:31;1.17;;;1.13;;
4794;SDS011;2411;47.060;15.064;2024-01-30T06:16:59;4.13;;;1.40;;
4794;SDS011;2411;47.060;15.064;2024-01-30T06:19:26;1.37;;;1.37;;
4794;SDS011;2411;47.060;15.064;2024-01-30T06:21:54;0.80;;;0.80;;
4794;SDS011;2411;47.060;15.064;2024-01-30T06:24:21;1.53;;;0.90;;
4794;SDS011;2411;47.060;15.064;2024-01-30T06:26:48;0.93;;;0.93;;
4794;SDS011;2411;47.060;15.064;2024-01-30T06:29:15;1.50;;;1.40;;
4794;SDS011;2411;47.060;15.064;2024-01-30T06:31:45;3.17;;;1.30;;
4794;SDS011;2411;47.060;15.064;2024-01-30T06:34:12;5.60;;;1.47;;
4794;SDS011;2411;47.060;15.064;2024-01-30T06:36:40;4.10;;;1.53;;
4794;SDS011;2411;47.060;15.064;2024-01-30T06:39:07;3.13;;;1.33;;
4794;SDS011;2411;47.060;15.064;2024-01-30T06:41:34;1.60;;;1.23;;
4794;SDS011;2411;47.060;15.064;2024-01-30T06:44:02;4.37;;;1.63;;
4794;SDS011;2411;47.060;15.064;2024-01-30T06:46:30;1.10;;;1.10;;
4794;SDS011;2411;47.060;15.064;2024-01-30T06:48:57;6.53;;;1.87;;
4794;SDS011;2411;47.060;15.064;2024-01-30T06:51:24;6.73;;;1.20;;
4794;SDS011;2411;47.060;15.064;2024-01-30T06:53:52;1.30;;;1.20;;
4794;SDS011;2411;47.060;15.064;2024-01-30T06:56:19;1.80;;;1.70;;
4794;SDS011;2411;47.060;15.064;2024-01-30T06:58:50;8.00;;;1.80;;
4794;SDS011;2411;47.060;15.064;2024-01-30T07:01:17;1.70;;;1.60;;
4794;SDS011;2411;47.060;15.064;2024-01-30T07:03:44;1.60;;;1.50;;
4794;SDS011;2411;47.060;15.064;2024-01-30T07:06:12;1.10;;;1.10;;
4794;SDS011;2411;47.060;15.064;2024-01-30T07:08:39;2.20;;;1.53;;
4794;SDS011;2411;47.060;15.064;2024-01-30T07:11:06;1.43;;;1.33;;
4794;SDS011;2411;47.060;15.064;2024-01-30T07:13:34;1.20;;;1.20;;
4794;SDS011;2411;47.060;15.064;2024-01-30T07:16:01;1.03;;;1.03;;
4794;SDS011;2411;47.060;15.064;2024-01-30T07:18:29;2.03;;;1.70;;
4794;SDS011;2411;47.060;15.064;2024-01-30T07:20:56;1.30;;;1.30;;
4794;SDS011;2411;47.060;15.064;2024-01-30T07:23:23;3.00;;;2.70;;
4794;SDS011;2411;47.060;15.064;2024-01-30T07:25:50;9.13;;;4.63;;
4794;SDS011;2411;47.060;15.064;2024-01-30T07:28:17;9.60;;;7.40;;
4794;SDS011;2411;47.060;15.064;2024-01-30T07:30:44;3.20;;;3.00;;
4794;SDS011;2411;47.060;15.064;2024-01-30T07:33:12;2.80;;;2.43;;
4794;SDS011;2411;47.060;15.064;2024-01-30T07:35:40;2.60;;;2.40;;
4794;SDS011;2411;47.060;15.064;2024-01-30T07:38:07;2.67;;;2.47;;
4794;SDS011;2411;47.060;15.064;2024-01-30T07:40:34;2.03;;;1.93;;
4794;SDS011;2411;47.060;15.064;2024-01-30T07:43:01;2.37;;;1.80;;
4794;SDS011;2411;47.060;15.064;2024-01-30T07:45:29;2.27;;;2.07;;
4794;SDS011;2411;47.060;15.064;2024-01-30T07:47:59;3.13;;;2.30;;
4794;SDS011;2411;47.060;15.064;2024-01-30T07:50:27;10.90;;;7.13;;
4794;SDS011;2411;47.060;15.064;2024-01-30T07:52:59;6.50;;;4.43;;
4794;SDS011;2411;47.060;15.064;2024-01-30T07:58:16;7.60;;;4.10;;
4794;SDS011;2411;47.060;15.064;2024-01-30T08:00:43;9.20;;;4.17;;
4794;SDS011;2411;47.060;15.064;2024-01-30T08:03:10;6.03;;;3.00;;
4794;SDS011;2411;47.060;15.064;2024-01-30T08:05:37;7.40;;;6.13;;
4794;SDS011;2411;47.060;15.064;2024-01-30T08:08:05;8.50;;;5.83;;
4794;SDS011;2411;47.060;15.064;2024-01-30T08:10:32;7.30;;;5.50;;
4794;SDS011;2411;47.060;15.064;2024-01-30T08:13:01;9.80;;;6.40;;
4794;SDS011;2411;47.060;15.064;2024-01-30T08:15:28;9.77;;;6.50;;
4794;SDS011;2411;47.060;15.064;2024-01-30T08:17:55;9.50;;;7.50;;
4794;SDS011;2411;47.060;15.064;2024-01-30T08:20:24;12.23;;;7.33;;
4794;SDS011;2411;47.060;15.064;2024-01-30T08:22:52;9.23;;;6.47;;
4794;SDS011;2411;47.060;15.064;2024-01-30T08:25:19;10.93;;;7.90;;
4794;SDS011;2411;47.060;15.064;2024-01-30T08:27:46;13.30;;;9.00;;
4794;SDS011;2411;47.060;15.064;2024-01-30T08:30:14;10.33;;;6.07;;
4794;SDS011;2411;47.060;15.064;2024-01-30T08:32:41;6.00;;;4.70;;
4794;SDS011;2411;47.060;15.064;2024-01-30T08:35:08;10.13;;;5.03;;
4794;SDS011;2411;47.060;15.064;2024-01-30T08:37:35;11.67;;;6.27;;
4794;SDS011;2411;47.060;15.064;2024-01-30T08:40:06;6.10;;;5.43;;
4794;SDS011;2411;47.060;15.064;2024-01-30T08:42:35;6.63;;;5.03;;
4794;SDS011;2411;47.060;15.064;2024-01-30T08:45:02;6.77;;;5.00;;
4794;SDS011;2411;47.060;15.064;2024-01-30T08:47:31;10.37;;;5.00;;
4794;SDS011;2411;47.060;15.064;2024-01-30T08:49:59;7.43;;;5.10;;
4794;SDS011;2411;47.060;15.064;2024-01-30T08:52:27;7.43;;;5.10;;
4794;SDS011;2411;47.060;15.064;2024-01-30T08:54:54;8.00;;;6.13;;
4794;SDS011;2411;47.060;15.064;2024-01-30T08:57:21;8.33;;;5.00;;
4794;SDS011;2411;47.060;15.064;2024-01-30T08:59:48;11.17;;;5.90;;
4794;SDS011;2411;47.060;15.064;2024-01-30T09:02:15;9.10;;;5.50;;
4794;SDS011;2411;47.060;15.064;2024-01-30T09:04:44;15.50;;;4.90;;
4794;SDS011;2411;47.060;15.064;2024-01-30T09:07:12;10.43;;;5.57;;
4794;SDS011;2411;47.060;15.064;2024-01-30T09:09:40;8.50;;;5.13;;
4794;SDS011;2411;47.060;15.064;2024-01-30T09:12:08;11.37;;;4.67;;
4794;SDS011;2411;47.060;15.064;2024-01-30T09:14:39;5.90;;;4.53;;
4794;SDS011;2411;47.060;15.064;2024-01-30T09:17:07;9.80;;;4.90;;
4794;SDS011;2411;47.060;15.064;2024-01-30T09:19:35;6.23;;;4.60;;
4794;SDS011;2411;47.060;15.064;2024-01-30T09:22:02;11.17;;;4.20;;
4794;SDS011;2411;47.060;15.064;2024-01-30T09:24:30;4.80;;;3.70;;
4794;SDS011;2411;47.060;15.064;2024-01-30T09:26:57;3.90;;;3.50;;
4794;SDS011;2411;47.060;15.064;2024-01-30T09:29:24;3.03;;;2.83;;
4794;SDS011;2411;47.060;15.064;2024-01-30T09:31:52;3.00;;;2.70;;
4794;SDS011;2411;47.060;15.064;2024-01-30T09:34:19;4.03;;;3.00;;
4794;SDS011;2411;47.060;15.064;2024-01-30T09:36:47;5.93;;;2.20;;
4794;SDS011;2411;47.060;15.064;2024-01-30T09:39:14;2.53;;;2.33;;
4794;SDS011;2411;47.060;15.064;2024-01-30T09:41:48;3.60;;;3.07;;
4794;SDS011;2411;47.060;15.064;2024-01-30T09:44:17;4.30;;;2.97;;
4794;SDS011;2411;47.060;15.064;2024-01-30T09:46:47;10.90;;;3.87;;
4794;SDS011;2411;47.060;15.064;2024-01-30T09:49:14;12.93;;;3.87;;
4794;SDS011;2411;47.060;15.064;2024-01-30T09:51:46;3.17;;;2.87;;
4794;SDS011;2411;47.060;15.064;2024-01-30T09:54:15;8.30;;;2.83;;
4794;SDS011;2411;47.060;15.064;2024-01-30T09:56:43;5.97;;;3.50;;
4794;SDS011;2411;47.060;15.064;2024-01-30T09:59:10;2.83;;;2.50;;
4794;SDS011;2411;47.060;15.064;2024-01-30T10:01:37;5.90;;;2.60;;
4794;SDS011;2411;47.060;15.064;2024-01-30T10:04:05;2.43;;;2.20;;
4794;SDS011;2411;47.060;15.064;2024-01-30T10:06:34;15.63;;;2.10;;
4794;SDS011;2411;47.060;15.064;2024-01-30T10:09:01;6.63;;;2.50;;
4794;SDS011;2411;47.060;15.064;2024-01-30T10:11:28;4.13;;;2.40;;
4794;SDS011;2411;47.060;15.064;2024-01-30T10:13:55;3.53;;;2.93;;
4794;SDS011;2411;47.060;15.064;2024-01-30T10:16:22;2.20;;;1.93;;
4794;SDS011;2411;47.060;15.064;2024-01-30T10:18:50;2.83;;;2.63;;
4794;SDS011;2411;47.060;15.064;2024-01-30T10:21:17;4.87;;;2.63;;
4794;SDS011;2411;47.060;15.064;2024-01-30T10:23:45;4.67;;;2.97;;
4794;SDS011;2411;47.060;15.064;2024-01-30T10:26:12;7.73;;;2.50;;
4794;SDS011;2411;47.060;15.064;2024-01-30T10:28:39;5.23;;;3.10;;
4794;SDS011;2411;47.060;15.064;2024-01-30T10:31:06;7.00;;;2.60;;
4794;SDS011;2411;47.060;15.064;2024-01-30T10:33:34;5.77;;;2.70;;
4794;SDS011;2411;47.060;15.064;2024-01-30T10:36:02;2.90;;;2.60;;
4794;SDS011;2411;47.060;15.064;2024-01-30T10:38:32;6.03;;;3.37;;
4794;SDS011;2411;47.060;15.064;2024-01-30T10:41:00;3.43;;;3.10;;
4794;SDS011;2411;47.060;15.064;2024-01-30T10:43:31;13.77;;;3.73;;
4794;SDS011;2411;47.060;15.064;2024-01-30T10:46:10;5.73;;;2.30;;
4794;SDS011;2411;47.060;15.064;2024-01-30T10:48:44;3.30;;;2.50;;
4794;SDS011;2411;47.060;15.064;2024-01-30T10:51:17;4.73;;;2.50;;
4794;SDS011;2411;47.060;15.064;2024-01-30T10:53:46;3.97;;;2.60;;
4794;SDS011;2411;47.060;15.064;2024-01-30T10:56:17;2.30;;;2.10;;
4794;SDS011;2411;47.060;15.064;2024-01-30T10:58:48;2.53;;;2.33;;
4794;SDS011;2411;47.060;15.064;2024-01-30T11:01:16;5.67;;;3.37;;
4794;SDS011;2411;47.060;15.064;2024-01-30T11:03:50;10.13;;;2.43;;
4794;SDS011;2411;47.060;15.064;2024-01-30T11:06:18;6.20;;;2.67;;
4794;SDS011;2411;47.060;15.064;2024-01-30T11:09:04;4.37;;;3.20;;
4794;SDS011;2411;47.060;15.064;2024-01-30T11:11:56;6.33;;;2.87;;
4794;SDS011;2411;47.060;15.064;2024-01-30T11:14:29;8.40;;;2.60;;
4794;SDS011;2411;47.060;15.064;2024-01-30T11:16:57;5.33;;;2.90;;
4794;SDS011;2411;47.060;15.064;2024-01-30T11:19:26;3.90;;;2.50;;
4794;SDS011;2411;47.060;15.064;2024-01-30T11:21:54;4.33;;;2.90;;
4794;SDS011;2411;47.060;15.064;2024-01-30T11:24:23;3.20;;;2.57;;
4794;SDS011;2411;47.060;15.064;2024-01-30T11:26:57;6.00;;;2.40;;
4794;SDS011;2411;47.060;15.064;2024-01-30T11:29:27;6.83;;;2.97;;
4794;SDS011;2411;47.060;15.064;2024-01-30T11:31:55;4.20;;;2.87;;
4794;SDS011;2411;47.060;15.064;2024-01-30T11:34:23;3.27;;;2.97;;
4794;SDS011;2411;47.060;15.064;2024-01-30T11:36:52;2.70;;;2.50;;
4794;SDS011;2411;47.060;15.064;2024-01-30T11:39:31;2.27;;;2.07;;
4794;SDS011;2411;47.060;15.064;2024-01-30T11:41:58;3.90;;;2.40;;
4794;SDS011;2411;47.060;15.064;2024-01-30T11:44:26;5.27;;;3.00;;
4794;SDS011;2411;47.060;15.064;2024-01-30T11:46:53;5.60;;;2.50;;
4794;SDS011;2411;47.060;15.064;2024-01-30T11:49:20;4.50;;;2.73;;
4794;SDS011;2411;47.060;15.064;2024-01-30T11:51:48;2.33;;;2.10;;
4794;SDS011;2411;47.060;15.064;2024-01-30T11:54:16;7.13;;;2.80;;
4794;SDS011;2411;47.060;15.064;2024-01-30T11:56:43;4.10;;;2.53;;
4794;SDS011;2411;47.060;15.064;2024-01-30T11:59:10;2.83;;;2.53;;
4794;SDS011;2411;47.060;15.064;2024-01-30T12:01:37;3.50;;;2.57;;
4794;SDS011;2411;47.060;15.064;2024-01-30T12:04:05;2.90;;;2.30;;
4794;SDS011;2411;47.060;15.064;2024-01-30T12:06:36;2.50;;;2.33;;
4794;SDS011;2411;47.060;15.064;2024-01-30T12:09:05;5.50;;;2.83;;
4794;SDS011;2411;47.060;15.064;2024-01-30T12:11:45;3.67;;;2.90;;
4794;SDS011;2411;47.060;15.064;2024-01-30T12:14:16;3.40;;;2.33;;
4794;SDS011;2411;47.060;15.064;2024-01-30T12:16:47;2.63;;;2.43;;
4794;SDS011;2411;47.060;15.064;2024-01-30T12:19:22;6.40;;;2.67;;
4794;SDS011;2411;47.060;15.064;2024-01-30T12:21:57;3.83;;;2.63;;
4794;SDS011;2411;47.060;15.064;2024-01-30T12:24:28;3.63;;;2.57;;
4794;SDS011;2411;47.060;15.064;2024-01-30T12:26:59;2.50;;;2.30;;
4794;SDS011;2411;47.060;15.064;2024-01-30T12:29:26;3.20;;;2.80;;
4794;SDS011;2411;47.060;15.064;2024-01-30T12:32:00;2.80;;;2.60;;
4794;SDS011;2411;47.060;15.064;2024-01-30T12:34:27;5.60;;;3.77;;
4794;SDS011;2411;47.060;15.064;2024-01-30T12:36:55;3.80;;;3.00;;
4794;SDS011;2411;47.060;15.064;2024-01-30T12:39:22;7.37;;;3.83;;
4794;SDS011;2411;47.060;15.064;2024-01-30T12:41:49;6.10;;;3.60;;
4794;SDS011;2411;47.060;15.064;2024-01-30T12:44:18;3.67;;;3.33;;
4794;SDS011;2411;47.060;15.064;2024-01-30T12:46:46;6.80;;;2.83;;
4794;SDS011;2411;47.060;15.064;2024-01-30T12:49:14;3.73;;;2.73;;
4794;SDS011;2411;47.060;15.064;2024-01-30T12:51:42;6.67;;;3.60;;
4794;SDS011;2411;47.060;15.064;2024-01-30T12:54:09;5.43;;;2.80;;
4794;SDS011;2411;47.060;15.064;2024-01-30T12:56:39;6.50;;;3.30;;
4794;SDS011;2411;47.060;15.064;2024-01-30T12:59:06;5.47;;;3.00;;
4794;SDS011;2411;47.060;15.064;2024-01-30T13:01:33;5.30;;;3.77;;
4794;SDS011;2411;47.060;15.064;2024-01-30T13:04:00;5.57;;;3.53;;
4794;SDS011;2411;47.060;15.064;2024-01-30T13:06:27;3.87;;;3.30;;
4794;SDS011;2411;47.060;15.064;2024-01-30T13:08:54;16.07;;;3.73;;
4794;SDS011;2411;47.060;15.064;2024-01-30T13:11:22;4.33;;;3.10;;
4794;SDS011;2411;47.060;15.064;2024-01-30T13:13:49;3.90;;;3.50;;
4794;SDS011;2411;47.060;15.064;2024-01-30T13:16:16;5.40;;;3.67;;
4794;SDS011;2411;47.060;15.064;2024-01-30T13:18:44;3.20;;;2.90;;
4794;SDS011;2411;47.060;15.064;2024-01-30T13:21:11;6.37;;;3.23;;
4794;SDS011;2411;47.060;15.064;2024-01-30T13:23:38;4.13;;;3.63;;
4794;SDS011;2411;47.060;15.064;2024-01-30T13:26:05;8.50;;;3.77;;
4794;SDS011;2411;47.060;15.064;2024-01-30T13:28:33;7.03;;;3.73;;
4794;SDS011;2411;47.060;15.064;2024-01-30T13:31:00;14.67;;;4.10;;
4794;SDS011;2411;47.060;15.064;2024-01-30T13:33:28;5.67;;;4.20;;
4794;SDS011;2411;47.060;15.064;2024-01-30T13:35:55;5.10;;;3.30;;
4794;SDS011;2411;47.060;15.064;2024-01-30T13:38:22;5.70;;;3.67;;
4794;SDS011;2411;47.060;15.064;2024-01-30T13:40:49;4.43;;;3.90;;
4794;SDS011;2411;47.060;15.064;2024-01-30T13:43:16;4.83;;;3.87;;
4794;SDS011;2411;47.060;15.064;2024-01-30T13:45:44;5.23;;;3.60;;
4794;SDS011;2411;47.060;15.064;2024-01-30T13:48:12;8.03;;;4.73;;
4794;SDS011;2411;47.060;15.064;2024-01-30T13:50:39;6.90;;;5.30;;
4794;SDS011;2411;47.060;15.064;2024-01-30T13:53:06;10.63;;;5.40;;
4794;SDS011;2411;47.060;15.064;2024-01-30T13:55:34;14.13;;;5.40;;
4794;SDS011;2411;47.060;15.064;2024-01-30T13:58:01;9.37;;;5.90;;
4794;SDS011;2411;47.060;15.064;2024-01-30T14:00:29;9.60;;;5.03;;
4794;SDS011;2411;47.060;15.064;2024-01-30T14:02:56;8.83;;;6.27;;
4794;SDS011;2411;47.060;15.064;2024-01-30T14:05:25;8.37;;;6.53;;
4794;SDS011;2411;47.060;15.064;2024-01-30T14:07:53;6.63;;;5.20;;
4794;SDS011;2411;47.060;15.064;2024-01-30T14:10:20;8.63;;;5.87;;
4794;SDS011;2411;47.060;15.064;2024-01-30T14:12:48;6.67;;;5.13;;
4794;SDS011;2411;47.060;15.064;2024-01-30T14:15:15;6.03;;;5.43;;
4794;SDS011;2411;47.060;15.064;2024-01-30T14:17:54;14.00;;;6.83;;
4794;SDS011;2411;47.060;15.064;2024-01-30T14:20:22;6.97;;;5.50;;
4794;SDS011;2411;47.060;15.064;2024-01-30T14:22:49;9.70;;;5.60;;
4794;SDS011;2411;47.060;15.064;2024-01-30T14:25:18;5.53;;;4.20;;
4794;SDS011;2411;47.060;15.064;2024-01-30T14:27:46;6.90;;;4.70;;
4794;SDS011;2411;47.060;15.064;2024-01-30T14:30:13;12.53;;;5.30;;
4794;SDS011;2411;47.060;15.064;2024-01-30T14:32:40;6.07;;;4.57;;
4794;SDS011;2411;47.060;15.064;2024-01-30T14:35:11;7.67;;;5.47;;
4794;SDS011;2411;47.060;15.064;2024-01-30T14:37:38;6.00;;;5.40;;
4794;SDS011;2411;47.060;15.064;2024-01-30T14:40:06;8.23;;;5.07;;
4794;SDS011;2411;47.060;15.064;2024-01-30T14:42:34;7.60;;;4.60;;
4794;SDS011;2411;47.060;15.064;2024-01-30T14:45:03;7.53;;;4.83;;
4794;SDS011;2411;47.060;15.064;2024-01-30T14:47:30;6.90;;;4.53;;
4794;SDS011;2411;47.060;15.064;2024-01-30T14:49:58;7.17;;;5.23;;
4794;SDS011;2411;47.060;15.064;2024-01-30T14:52:25;8.27;;;5.50;;
4794;SDS011;2411;47.060;15.064;2024-01-30T14:54:52;13.50;;;5.43;;
4794;SDS011;2411;47.060;15.064;2024-01-30T14:57:19;10.90;;;5.50;;
4794;SDS011;2411;47.060;15.064;2024-01-30T14:59:47;7.07;;;4.47;;
4794;SDS011;2411;47.060;15.064;2024-01-30T15:02:15;7.80;;;5.20;;
4794;SDS011;2411;47.060;15.064;2024-01-30T15:04:42;6.80;;;5.20;;
4794;SDS011;2411;47.060;15.064;2024-01-30T15:07:09;13.50;;;6.27;;